Currently 48°F in Simi Valley, California, USA
48°F
50°F / 42°F
7 mph S
0.00"
Monday, February 19, 2018 9:51 AM PST

Simi Valley, California Climate Summary
Typical February Day

Normal High:    70.0°F (21.1°C)
Normal Low:    48.0°F (8.9°C)
Average:    58.2°F (14.5°C)

Hour    Temperature    Wind Speed    Humidity
12:00 AM    53°F (12°C)    3 mph    63%
1:00 AM    53°F (11°C)    3 mph    64%
2:00 AM    52°F (11°C)    3 mph    64%
3:00 AM    52°F (11°C)    3 mph    64%
4:00 AM    51°F (11°C)    3 mph    64%
5:00 AM    51°F (11°C)    3 mph    64%
6:00 AM    51°F (11°C)    4 mph    65%
7:00 AM    51°F (10°C)    3 mph    65%
8:00 AM    53°F (12°C)    3 mph    63%
9:00 AM    58°F (14°C)    3 mph    58%
10:00 AM    62°F (17°C)    4 mph    51%
11:00 AM    65°F (19°C)    4 mph    46%
12:00 PM    68°F (20°C)    4 mph    42%
1:00 PM    69°F (20°C)    5 mph    41%
2:00 PM    69°F (20°C)    5 mph    42%
3:00 PM    68°F (20°C)    5 mph    44%
4:00 PM    66°F (19°C)    5 mph    47%
5:00 PM    64°F (18°C)    4 mph    50%
6:00 PM    61°F (16°C)    3 mph    55%
7:00 PM    59°F (15°C)    3 mph    59%
8:00 PM    57°F (14°C)    2 mph    61%
9:00 PM    55°F (13°C)    3 mph    62%
10:00 PM    54°F (12°C)    3 mph    63%
11:00 PM    54°F (12°C)    3 mph    64%
 

The Simi Valley, California weather pages are a service of WeatherCurrents.
Copyright ©Mon Feb 19 09:52:21 PST 2018  WeatherCurrents. All rights reserved. - Submit questions and comments - Privacy Policy